SWR42R LSZH-EDDB
Flight info
| Callsign | SWR42R |
|---|---|
| Flight time | 1h 12m |
| Altitude | 36000 |
| Route | DEGES Z1 ETAGO DCT TIKNI/N0429F370 T279 TAMEB T278 KLF KLF1R |
| Aircraft | A21N/M-SDE2E3FGHIRWXY/LB1 |
Departure
| Time | 2026-05-05 10:15 |
|---|---|
| Airport | Zürich Airport (LSZH) |
Arrival
| Time | 2026-05-05 11:27 |
|---|---|
| Airport | Berlin Brandenburg Airport (EDDB) |
| Time | Latitude | Longitude | Altitude | Speed | Heading |
|---|---|---|---|---|---|
| 2026-05-05 09:32 | 47.45334 | 8.55806 | 1412 ft | 0 kts | 6° |
| 2026-05-05 10:03 | 47.45326 | 8.55805 | 1416 ft | 4 kts | 6° |
| 2026-05-05 10:03 | 47.45299 | 8.55802 | 1416 ft | 4 kts | 359° |
| 2026-05-05 10:03 | 47.45274 | 8.55809 | 1415 ft | 5 kts | 330° |
| 2026-05-05 10:04 | 47.45258 | 8.55834 | 1418 ft | 5 kts | 281° |
| 2026-05-05 10:04 | 47.45257 | 8.55842 | 1418 ft | 1 kts | 275° |
| 2026-05-05 10:08 | 47.45258 | 8.55834 | 1418 ft | 3 kts | 275° |
| 2026-05-05 10:08 | 47.45261 | 8.55787 | 1416 ft | 7 kts | 276° |
| 2026-05-05 10:08 | 47.45267 | 8.55697 | 1412 ft | 11 kts | 276° |
| 2026-05-05 10:08 | 47.45293 | 8.55571 | 1415 ft | 15 kts | 323° |
| 2026-05-05 10:09 | 47.45392 | 8.55498 | 1414 ft | 17 kts | 334° |
| 2026-05-05 10:09 | 47.45471 | 8.55443 | 1410 ft | 10 kts | 334° |
| 2026-05-05 10:09 | 47.45540 | 8.55394 | 1407 ft | 12 kts | 334° |
| 2026-05-05 10:09 | 47.45619 | 8.55341 | 1408 ft | 13 kts | 339° |
| 2026-05-05 10:10 | 47.45673 | 8.55400 | 1406 ft | 5 kts | 86° |
| 2026-05-05 10:10 | 47.45672 | 8.55422 | 1410 ft | 5 kts | 97° |
| 2026-05-05 10:10 | 47.45664 | 8.55508 | 1408 ft | 12 kts | 97° |
| 2026-05-05 10:10 | 47.45652 | 8.55653 | 1410 ft | 15 kts | 92° |
| 2026-05-05 10:11 | 47.45643 | 8.55824 | 1414 ft | 18 kts | 97° |
| 2026-05-05 10:11 | 47.45627 | 8.56017 | 1416 ft | 20 kts | 96° |
| 2026-05-05 10:11 | 47.45612 | 8.56230 | 1418 ft | 22 kts | 96° |
| 2026-05-05 10:11 | 47.45596 | 8.56462 | 1420 ft | 23 kts | 96° |
| 2026-05-05 10:12 | 47.45578 | 8.56712 | 1424 ft | 26 kts | 95° |
| 2026-05-05 10:12 | 47.45565 | 8.56912 | 1426 ft | 12 kts | 96° |
| 2026-05-05 10:12 | 47.45607 | 8.57014 | 1429 ft | 15 kts | 18° |
| 2026-05-05 10:12 | 47.45668 | 8.56923 | 1429 ft | 13 kts | 281° |
| 2026-05-05 10:13 | 47.45671 | 8.56897 | 1428 ft | 0 kts | 274° |
| 2026-05-05 10:14 | 47.45671 | 8.56896 | 1428 ft | 0 kts | 274° |
| 2026-05-05 10:14 | 47.45673 | 8.56857 | 1428 ft | 21 kts | 276° |
| 2026-05-05 10:14 | 47.45722 | 8.56187 | 1423 ft | 109 kts | 275° |
| 2026-05-05 10:14 | 47.45832 | 8.54709 | 1466 ft | 170 kts | 274° |
| 2026-05-05 10:15 | 47.45906 | 8.52972 | 2440 ft | 169 kts | 270° |
| 2026-05-05 10:15 | 47.45926 | 8.51178 | 3158 ft | 187 kts | 270° |
| 2026-05-05 10:15 | 47.45937 | 8.49180 | 3794 ft | 198 kts | 269° |
| 2026-05-05 10:15 | 47.46018 | 8.47099 | 4536 ft | 208 kts | 276° |
| 2026-05-05 10:16 | 47.46489 | 8.44988 | 5058 ft | 229 kts | 304° |
| 2026-05-05 10:16 | 47.47824 | 8.43529 | 5386 ft | 257 kts | 344° |
| 2026-05-05 10:16 | 47.49654 | 8.43239 | 6081 ft | 270 kts | 0° |
| 2026-05-05 10:16 | 47.51551 | 8.43453 | 6877 ft | 281 kts | 9° |
| 2026-05-05 10:17 | 47.53471 | 8.44005 | 7938 ft | 285 kts | 16° |
| 2026-05-05 10:17 | 47.55357 | 8.45079 | 8760 ft | 295 kts | 28° |
| 2026-05-05 10:17 | 47.57013 | 8.46864 | 9624 ft | 299 kts | 51° |
| 2026-05-05 10:17 | 47.58032 | 8.49542 | 10296 ft | 300 kts | 76° |
| 2026-05-05 10:18 | 47.58296 | 8.52656 | 10721 ft | 313 kts | 99° |
| 2026-05-05 10:18 | 47.57645 | 8.55751 | 11185 ft | 319 kts | 123° |
| 2026-05-05 10:18 | 47.56183 | 8.58196 | 11902 ft | 318 kts | 146° |
| 2026-05-05 10:18 | 47.54312 | 8.59943 | 12724 ft | 320 kts | 153° |
| 2026-05-05 10:19 | 47.52367 | 8.61610 | 13585 ft | 325 kts | 153° |
| 2026-05-05 10:19 | 47.50411 | 8.63325 | 14357 ft | 329 kts | 150° |
| 2026-05-05 10:19 | 47.48610 | 8.65463 | 15105 ft | 337 kts | 137° |
| 2026-05-05 10:19 | 47.47234 | 8.68310 | 15839 ft | 346 kts | 121° |
| 2026-05-05 10:20 | 47.46440 | 8.71724 | 16499 ft | 359 kts | 103° |
| 2026-05-05 10:20 | 47.46325 | 8.75457 | 17222 ft | 369 kts | 90° |
| 2026-05-05 10:20 | 47.46495 | 8.79215 | 17969 ft | 374 kts | 89° |
| 2026-05-05 10:20 | 47.46504 | 8.83036 | 18720 ft | 370 kts | 100° |
| 2026-05-05 10:21 | 47.46077 | 8.86773 | 19415 ft | 368 kts | 105° |
| 2026-05-05 10:21 | 47.45535 | 8.90481 | 20046 ft | 371 kts | 106° |
| 2026-05-05 10:21 | 47.44981 | 8.94228 | 20643 ft | 374 kts | 106° |
| 2026-05-05 10:21 | 47.44436 | 8.97997 | 21249 ft | 377 kts | 105° |
| 2026-05-05 10:22 | 47.43889 | 9.01804 | 21844 ft | 380 kts | 105° |
| 2026-05-05 10:22 | 47.43339 | 9.05635 | 22411 ft | 382 kts | 105° |
| 2026-05-05 10:22 | 47.42785 | 9.09483 | 22976 ft | 385 kts | 105° |
| 2026-05-05 10:22 | 47.42223 | 9.13359 | 23492 ft | 387 kts | 105° |
| 2026-05-05 10:23 | 47.41651 | 9.17267 | 23922 ft | 390 kts | 106° |
| 2026-05-05 10:23 | 47.41086 | 9.21139 | 24294 ft | 393 kts | 105° |
| 2026-05-05 10:23 | 47.40749 | 9.25171 | 24655 ft | 401 kts | 94° |
| 2026-05-05 10:23 | 47.41081 | 9.29297 | 24981 ft | 409 kts | 80° |
| 2026-05-05 10:24 | 47.42059 | 9.33299 | 25311 ft | 417 kts | 67° |
| 2026-05-05 10:24 | 47.43589 | 9.36965 | 25619 ft | 423 kts | 55° |
| 2026-05-05 10:24 | 47.45631 | 9.40138 | 25915 ft | 430 kts | 43° |
| 2026-05-05 10:24 | 47.48103 | 9.42675 | 26203 ft | 435 kts | 31° |
| 2026-05-05 10:25 | 47.50869 | 9.44367 | 26457 ft | 439 kts | 15° |
| 2026-05-05 10:25 | 47.53894 | 9.45068 | 26733 ft | 442 kts | 3° |
| 2026-05-05 10:25 | 47.56985 | 9.45198 | 27017 ft | 444 kts | 1° |
| 2026-05-05 10:25 | 47.60076 | 9.45286 | 27293 ft | 446 kts | 1° |
| 2026-05-05 10:26 | 47.63179 | 9.45407 | 27568 ft | 448 kts | 1° |
| 2026-05-05 10:26 | 47.66303 | 9.45557 | 27856 ft | 449 kts | 1° |
| 2026-05-05 10:26 | 47.69433 | 9.45720 | 28136 ft | 451 kts | 1° |
| 2026-05-05 10:26 | 47.72570 | 9.45888 | 28386 ft | 453 kts | 1° |
| 2026-05-05 10:27 | 47.75728 | 9.46060 | 28630 ft | 455 kts | 1° |
| 2026-05-05 10:27 | 47.78898 | 9.46227 | 28872 ft | 457 kts | 1° |
| 2026-05-05 10:27 | 47.82076 | 9.46286 | 29094 ft | 458 kts | 359° |
| 2026-05-05 10:27 | 47.85276 | 9.46283 | 29361 ft | 459 kts | 358° |
| 2026-05-05 10:28 | 47.88474 | 9.46277 | 29642 ft | 459 kts | 358° |
| 2026-05-05 10:28 | 47.91669 | 9.46273 | 29879 ft | 460 kts | 358° |
| 2026-05-05 10:28 | 47.94879 | 9.46264 | 30054 ft | 462 kts | 358° |
| 2026-05-05 10:28 | 47.98064 | 9.46256 | 30222 ft | 464 kts | 358° |
| 2026-05-05 10:29 | 48.01344 | 9.46247 | 30383 ft | 465 kts | 358° |
| 2026-05-05 10:29 | 48.04542 | 9.46241 | 30543 ft | 467 kts | 358° |
| 2026-05-05 10:29 | 48.07799 | 9.46237 | 30716 ft | 468 kts | 358° |
| 2026-05-05 10:29 | 48.11065 | 9.46225 | 30882 ft | 470 kts | 358° |
| 2026-05-05 10:30 | 48.14343 | 9.46210 | 31042 ft | 471 kts | 358° |
| 2026-05-05 10:30 | 48.17627 | 9.46199 | 31189 ft | 473 kts | 358° |
| 2026-05-05 10:30 | 48.20915 | 9.46195 | 31352 ft | 474 kts | 358° |
| 2026-05-05 10:30 | 48.24228 | 9.46209 | 31527 ft | 474 kts | 358° |
| 2026-05-05 10:31 | 48.27519 | 9.46222 | 31732 ft | 475 kts | 358° |
| 2026-05-05 10:31 | 48.30840 | 9.46224 | 31841 ft | 476 kts | 358° |
| 2026-05-05 10:31 | 48.34124 | 9.46222 | 31973 ft | 477 kts | 358° |
| 2026-05-05 10:31 | 48.37450 | 9.46215 | 32154 ft | 477 kts | 358° |
| 2026-05-05 10:32 | 48.40771 | 9.46213 | 32339 ft | 478 kts | 358° |
| 2026-05-05 10:32 | 48.44094 | 9.46219 | 32505 ft | 478 kts | 358° |
| 2026-05-05 10:32 | 48.47425 | 9.46222 | 32691 ft | 478 kts | 358° |
| 2026-05-05 10:32 | 48.50759 | 9.46221 | 32867 ft | 478 kts | 358° |
| 2026-05-05 10:33 | 48.54086 | 9.46226 | 33036 ft | 478 kts | 358° |
| 2026-05-05 10:33 | 48.57372 | 9.46208 | 33205 ft | 478 kts | 357° |
| 2026-05-05 10:33 | 48.60696 | 9.46169 | 33388 ft | 477 kts | 357° |
| 2026-05-05 10:33 | 48.64017 | 9.46127 | 33561 ft | 477 kts | 357° |
| 2026-05-05 10:34 | 48.67347 | 9.46086 | 33716 ft | 477 kts | 357° |
| 2026-05-05 10:34 | 48.70670 | 9.46046 | 33860 ft | 477 kts | 357° |
| 2026-05-05 10:34 | 48.73992 | 9.46308 | 33970 ft | 480 kts | 6° |
| 2026-05-05 10:34 | 48.77295 | 9.47055 | 34115 ft | 480 kts | 7° |
| 2026-05-05 10:35 | 48.80593 | 9.47850 | 34271 ft | 479 kts | 7° |
| 2026-05-05 10:35 | 48.83880 | 9.48642 | 34423 ft | 478 kts | 7° |
| 2026-05-05 10:35 | 48.87162 | 9.49434 | 34563 ft | 477 kts | 7° |
| 2026-05-05 10:35 | 48.90443 | 9.50223 | 34689 ft | 477 kts | 7° |
| 2026-05-05 10:36 | 48.93729 | 9.51007 | 34841 ft | 476 kts | 7° |
| 2026-05-05 10:36 | 48.96996 | 9.51789 | 34993 ft | 475 kts | 7° |
| 2026-05-05 10:36 | 49.00253 | 9.52574 | 35126 ft | 474 kts | 7° |
| 2026-05-05 10:36 | 49.03509 | 9.53358 | 35271 ft | 473 kts | 7° |
| 2026-05-05 10:37 | 49.06759 | 9.54136 | 35407 ft | 472 kts | 7° |
| 2026-05-05 10:37 | 49.10004 | 9.54912 | 35525 ft | 472 kts | 7° |
| 2026-05-05 10:37 | 49.13250 | 9.55693 | 35645 ft | 471 kts | 7° |
| 2026-05-05 10:37 | 49.16490 | 9.56474 | 35754 ft | 470 kts | 7° |
| 2026-05-05 10:38 | 49.19717 | 9.57252 | 35860 ft | 470 kts | 7° |
| 2026-05-05 10:38 | 49.22945 | 9.58033 | 35871 ft | 469 kts | 7° |
| 2026-05-05 10:38 | 49.29344 | 9.59586 | 35846 ft | 468 kts | 7° |
| 2026-05-05 10:39 | 49.35778 | 9.61151 | 35850 ft | 468 kts | 6° |
| 2026-05-05 10:39 | 49.42244 | 9.62727 | 35844 ft | 467 kts | 6° |
| 2026-05-05 10:40 | 49.48623 | 9.64285 | 35841 ft | 467 kts | 6° |
| 2026-05-05 10:40 | 49.55036 | 9.65858 | 35845 ft | 467 kts | 6° |
| 2026-05-05 10:41 | 49.61440 | 9.67433 | 35844 ft | 465 kts | 6° |
| 2026-05-05 10:41 | 49.67840 | 9.69009 | 35840 ft | 465 kts | 6° |
| 2026-05-05 10:42 | 49.77434 | 9.71380 | 35842 ft | 465 kts | 6° |
| 2026-05-05 10:43 | 49.83794 | 9.72957 | 35842 ft | 465 kts | 6° |
| 2026-05-05 10:43 | 49.90188 | 9.74549 | 35841 ft | 466 kts | 6° |
| 2026-05-05 10:44 | 49.96584 | 9.76143 | 35846 ft | 465 kts | 6° |
| 2026-05-05 10:44 | 50.02986 | 9.77744 | 35852 ft | 466 kts | 6° |
| 2026-05-05 10:45 | 50.09376 | 9.79348 | 35848 ft | 465 kts | 6° |
| 2026-05-05 10:45 | 50.15764 | 9.80956 | 35842 ft | 465 kts | 6° |
| 2026-05-05 10:46 | 50.22166 | 9.82575 | 35842 ft | 465 kts | 6° |
| 2026-05-05 10:46 | 50.28561 | 9.84192 | 35849 ft | 465 kts | 5° |
| 2026-05-05 10:47 | 50.34953 | 9.85816 | 35844 ft | 465 kts | 6° |
| 2026-05-05 10:47 | 50.41130 | 9.88978 | 35840 ft | 474 kts | 28° |
| 2026-05-05 10:47 | 50.43774 | 9.91970 | 35843 ft | 477 kts | 42° |
| 2026-05-05 10:48 | 50.46105 | 9.95666 | 35862 ft | 477 kts | 46° |
| 2026-05-05 10:48 | 50.50617 | 10.03327 | 35852 ft | 477 kts | 47° |
| 2026-05-05 10:49 | 50.55145 | 10.10951 | 35856 ft | 477 kts | 46° |
| 2026-05-05 10:49 | 50.59696 | 10.18570 | 35857 ft | 477 kts | 46° |
| 2026-05-05 10:50 | 50.64242 | 10.26197 | 35857 ft | 477 kts | 48° |
| 2026-05-05 10:50 | 50.66206 | 10.30405 | 35855 ft | 477 kts | 60° |
| 2026-05-05 10:50 | 50.67832 | 10.34958 | 35854 ft | 475 kts | 62° |
| 2026-05-05 10:51 | 50.70918 | 10.44064 | 35866 ft | 474 kts | 63° |
| 2026-05-05 10:51 | 50.74023 | 10.53181 | 35865 ft | 469 kts | 62° |
| 2026-05-05 10:52 | 50.77111 | 10.62220 | 35861 ft | 467 kts | 63° |
| 2026-05-05 10:52 | 50.80203 | 10.71320 | 35872 ft | 472 kts | 63° |
| 2026-05-05 10:53 | 50.83318 | 10.80507 | 35885 ft | 475 kts | 63° |
| 2026-05-05 10:53 | 50.86445 | 10.89753 | 35867 ft | 476 kts | 63° |
| 2026-05-05 10:54 | 50.89558 | 10.99003 | 35874 ft | 476 kts | 63° |
| 2026-05-05 10:54 | 50.92644 | 11.08220 | 35874 ft | 474 kts | 63° |
| 2026-05-05 10:55 | 50.95709 | 11.17394 | 35871 ft | 468 kts | 63° |
| 2026-05-05 10:55 | 50.98256 | 11.25043 | 35875 ft | 469 kts | 63° |
| 2026-05-05 10:56 | 51.01294 | 11.34196 | 35886 ft | 474 kts | 63° |
| 2026-05-05 10:56 | 51.04378 | 11.43527 | 35880 ft | 477 kts | 63° |
| 2026-05-05 10:57 | 51.07452 | 11.52860 | 35855 ft | 473 kts | 63° |
| 2026-05-05 10:57 | 51.08964 | 11.57467 | 35539 ft | 470 kts | 63° |
| 2026-05-05 10:57 | 51.10455 | 11.62016 | 35307 ft | 470 kts | 63° |
| 2026-05-05 10:57 | 51.11977 | 11.66672 | 34912 ft | 465 kts | 63° |
| 2026-05-05 10:58 | 51.13457 | 11.71215 | 34419 ft | 459 kts | 63° |
| 2026-05-05 10:58 | 51.14908 | 11.75714 | 33865 ft | 454 kts | 63° |
| 2026-05-05 10:58 | 51.16349 | 11.80165 | 33266 ft | 449 kts | 63° |
| 2026-05-05 10:58 | 51.17778 | 11.84571 | 32695 ft | 444 kts | 63° |
| 2026-05-05 10:59 | 51.19180 | 11.88918 | 32149 ft | 438 kts | 63° |
| 2026-05-05 10:59 | 51.20587 | 11.93194 | 31628 ft | 433 kts | 60° |
| 2026-05-05 10:59 | 51.22335 | 11.96981 | 31093 ft | 427 kts | 47° |
| 2026-05-05 10:59 | 51.24363 | 12.00405 | 30563 ft | 422 kts | 45° |
| 2026-05-05 11:00 | 51.26394 | 12.03743 | 30091 ft | 416 kts | 45° |
| 2026-05-05 11:00 | 51.28388 | 12.07057 | 29544 ft | 412 kts | 45° |
| 2026-05-05 11:00 | 51.30351 | 12.10354 | 28982 ft | 407 kts | 46° |
| 2026-05-05 11:00 | 51.32287 | 12.13618 | 28468 ft | 402 kts | 46° |
| 2026-05-05 11:01 | 51.34222 | 12.16888 | 27983 ft | 406 kts | 46° |
| 2026-05-05 11:01 | 51.36151 | 12.20150 | 27495 ft | 400 kts | 46° |
| 2026-05-05 11:01 | 51.38055 | 12.23365 | 27020 ft | 394 kts | 46° |
| 2026-05-05 11:01 | 51.39932 | 12.26531 | 26534 ft | 390 kts | 46° |
| 2026-05-05 11:02 | 51.41789 | 12.29678 | 26063 ft | 386 kts | 46° |
| 2026-05-05 11:02 | 51.43615 | 12.32786 | 25605 ft | 380 kts | 46° |
| 2026-05-05 11:02 | 51.45414 | 12.35853 | 25176 ft | 376 kts | 46° |
| 2026-05-05 11:02 | 51.47182 | 12.38865 | 24734 ft | 375 kts | 46° |
| 2026-05-05 11:03 | 51.48965 | 12.41913 | 24253 ft | 374 kts | 46° |
| 2026-05-05 11:03 | 51.50740 | 12.44947 | 23776 ft | 371 kts | 46° |
| 2026-05-05 11:03 | 51.52498 | 12.47950 | 23294 ft | 368 kts | 46° |
| 2026-05-05 11:03 | 51.54239 | 12.50925 | 22783 ft | 364 kts | 46° |
| 2026-05-05 11:04 | 51.55960 | 12.53877 | 22300 ft | 359 kts | 46° |
| 2026-05-05 11:04 | 51.57660 | 12.56796 | 21828 ft | 355 kts | 46° |
| 2026-05-05 11:04 | 51.59332 | 12.59676 | 21377 ft | 350 kts | 46° |
| 2026-05-05 11:04 | 51.60988 | 12.62527 | 20935 ft | 346 kts | 46° |
| 2026-05-05 11:05 | 51.62601 | 12.65299 | 20491 ft | 344 kts | 46° |
| 2026-05-05 11:05 | 51.64233 | 12.68108 | 20082 ft | 343 kts | 46° |
| 2026-05-05 11:05 | 51.65879 | 12.70946 | 19670 ft | 341 kts | 46° |
| 2026-05-05 11:05 | 51.67474 | 12.73699 | 19269 ft | 339 kts | 46° |
| 2026-05-05 11:06 | 51.69080 | 12.76474 | 18861 ft | 338 kts | 46° |
| 2026-05-05 11:06 | 51.70678 | 12.79239 | 18455 ft | 336 kts | 46° |
| 2026-05-05 11:06 | 51.72269 | 12.81993 | 18052 ft | 335 kts | 46° |
| 2026-05-05 11:06 | 51.73851 | 12.84729 | 17623 ft | 332 kts | 46° |
| 2026-05-05 11:07 | 51.75421 | 12.87438 | 17206 ft | 329 kts | 46° |
| 2026-05-05 11:07 | 51.76982 | 12.90139 | 16812 ft | 327 kts | 46° |
| 2026-05-05 11:07 | 51.78384 | 12.93005 | 16434 ft | 325 kts | 57° |
| 2026-05-05 11:07 | 51.79572 | 12.96096 | 16086 ft | 322 kts | 59° |
| 2026-05-05 11:08 | 51.80720 | 12.99197 | 15747 ft | 320 kts | 59° |
| 2026-05-05 11:08 | 51.81856 | 13.02266 | 15400 ft | 318 kts | 59° |
| 2026-05-05 11:08 | 51.82994 | 13.05315 | 15054 ft | 315 kts | 59° |
| 2026-05-05 11:08 | 51.84122 | 13.08336 | 14699 ft | 313 kts | 59° |
| 2026-05-05 11:09 | 51.85230 | 13.11303 | 14351 ft | 311 kts | 59° |
| 2026-05-05 11:09 | 51.86346 | 13.14290 | 13999 ft | 308 kts | 59° |
| 2026-05-05 11:09 | 51.87451 | 13.17245 | 13642 ft | 306 kts | 59° |
| 2026-05-05 11:09 | 51.88549 | 13.20187 | 13249 ft | 304 kts | 59° |
| 2026-05-05 11:10 | 51.89639 | 13.23112 | 12878 ft | 302 kts | 59° |
| 2026-05-05 11:10 | 51.90718 | 13.26015 | 12521 ft | 300 kts | 59° |
| 2026-05-05 11:10 | 51.91790 | 13.28907 | 12152 ft | 299 kts | 59° |
| 2026-05-05 11:10 | 51.92860 | 13.31784 | 11793 ft | 298 kts | 59° |
| 2026-05-05 11:11 | 51.93923 | 13.34649 | 11434 ft | 296 kts | 59° |
| 2026-05-05 11:11 | 51.94981 | 13.37498 | 11075 ft | 293 kts | 59° |
| 2026-05-05 11:11 | 51.96027 | 13.40326 | 10705 ft | 292 kts | 59° |
| 2026-05-05 11:11 | 51.97068 | 13.43142 | 10370 ft | 290 kts | 59° |
| 2026-05-05 11:12 | 51.98099 | 13.45936 | 10037 ft | 288 kts | 59° |
| 2026-05-05 11:12 | 51.99112 | 13.48684 | 9704 ft | 286 kts | 59° |
| 2026-05-05 11:12 | 52.00128 | 13.51443 | 9305 ft | 284 kts | 59° |
| 2026-05-05 11:12 | 52.01141 | 13.54196 | 8922 ft | 286 kts | 59° |
| 2026-05-05 11:13 | 52.02070 | 13.57073 | 8201 ft | 291 kts | 72° |
| 2026-05-05 11:13 | 52.02289 | 13.60309 | 7617 ft | 288 kts | 98° |
| 2026-05-05 11:13 | 52.01679 | 13.63348 | 7120 ft | 280 kts | 123° |
| 2026-05-05 11:13 | 52.00387 | 13.65622 | 6628 ft | 272 kts | 148° |
| 2026-05-05 11:14 | 51.98667 | 13.66751 | 6122 ft | 265 kts | 174° |
| 2026-05-05 11:14 | 51.96870 | 13.66548 | 5579 ft | 259 kts | 199° |
| 2026-05-05 11:14 | 51.95347 | 13.65086 | 5054 ft | 254 kts | 225° |
| 2026-05-05 11:14 | 51.94413 | 13.62704 | 4541 ft | 252 kts | 252° |
| 2026-05-05 11:15 | 51.94253 | 13.59945 | 4043 ft | 251 kts | 278° |
| 2026-05-05 11:15 | 51.94796 | 13.57276 | 3556 ft | 251 kts | 294° |
| 2026-05-05 11:15 | 51.95809 | 13.54996 | 3136 ft | 249 kts | 315° |
| 2026-05-05 11:15 | 51.97072 | 13.53158 | 2930 ft | 237 kts | 319° |
| 2026-05-05 11:16 | 51.98294 | 13.51454 | 2772 ft | 225 kts | 319° |
| 2026-05-05 11:16 | 51.99451 | 13.49838 | 2598 ft | 215 kts | 319° |
| 2026-05-05 11:16 | 52.00561 | 13.48292 | 2420 ft | 206 kts | 319° |
| 2026-05-05 11:16 | 52.01638 | 13.46788 | 2116 ft | 202 kts | 319° |
| 2026-05-05 11:17 | 52.02701 | 13.45291 | 1966 ft | 203 kts | 319° |
| 2026-05-05 11:17 | 52.03764 | 13.43792 | 1953 ft | 203 kts | 319° |
| 2026-05-05 11:17 | 52.04827 | 13.42292 | 1956 ft | 201 kts | 319° |
| 2026-05-05 11:17 | 52.05904 | 13.40767 | 1974 ft | 213 kts | 319° |
| 2026-05-05 11:18 | 52.07027 | 13.39176 | 1977 ft | 215 kts | 319° |
| 2026-05-05 11:18 | 52.08153 | 13.37582 | 1978 ft | 215 kts | 319° |
| 2026-05-05 11:18 | 52.09270 | 13.35993 | 1981 ft | 213 kts | 319° |
| 2026-05-05 11:18 | 52.10385 | 13.34391 | 1983 ft | 214 kts | 319° |
| 2026-05-05 11:19 | 52.11502 | 13.32785 | 1985 ft | 215 kts | 319° |
| 2026-05-05 11:19 | 52.12620 | 13.31175 | 1980 ft | 215 kts | 319° |
| 2026-05-05 11:19 | 52.13738 | 13.29572 | 1985 ft | 214 kts | 319° |
| 2026-05-05 11:19 | 52.14896 | 13.28063 | 1974 ft | 212 kts | 332° |
| 2026-05-05 11:20 | 52.16190 | 13.27154 | 1964 ft | 191 kts | 339° |
| 2026-05-05 11:20 | 52.17382 | 13.26433 | 1958 ft | 183 kts | 340° |
| 2026-05-05 11:20 | 52.18574 | 13.25724 | 1968 ft | 181 kts | 340° |
| 2026-05-05 11:20 | 52.19763 | 13.25017 | 1980 ft | 182 kts | 340° |
| 2026-05-05 11:21 | 52.20947 | 13.24312 | 1984 ft | 181 kts | 340° |
| 2026-05-05 11:21 | 52.22130 | 13.23612 | 1993 ft | 181 kts | 340° |
| 2026-05-05 11:21 | 52.23319 | 13.22904 | 1989 ft | 181 kts | 340° |
| 2026-05-05 11:21 | 52.24509 | 13.22193 | 1984 ft | 183 kts | 340° |
| 2026-05-05 11:22 | 52.25702 | 13.21483 | 1984 ft | 182 kts | 340° |
| 2026-05-05 11:22 | 52.26922 | 13.21051 | 1971 ft | 182 kts | 9° |
| 2026-05-05 11:22 | 52.28046 | 13.21939 | 1984 ft | 186 kts | 41° |
| 2026-05-05 11:22 | 52.28869 | 13.23578 | 1989 ft | 188 kts | 58° |
| 2026-05-05 11:23 | 52.29462 | 13.25479 | 1992 ft | 188 kts | 66° |
| 2026-05-05 11:23 | 52.29932 | 13.27466 | 1986 ft | 188 kts | 68° |
| 2026-05-05 11:23 | 52.30410 | 13.29479 | 1994 ft | 196 kts | 68° |
| 2026-05-05 11:23 | 52.30891 | 13.31505 | 2013 ft | 178 kts | 68° |
| 2026-05-05 11:24 | 52.31306 | 13.33247 | 1961 ft | 148 kts | 68° |
| 2026-05-05 11:24 | 52.31657 | 13.34723 | 1758 ft | 139 kts | 68° |
| 2026-05-05 11:24 | 52.32010 | 13.36206 | 1575 ft | 139 kts | 68° |
| 2026-05-05 11:24 | 52.32361 | 13.37682 | 1386 ft | 139 kts | 68° |
| 2026-05-05 11:25 | 52.32711 | 13.39156 | 1188 ft | 138 kts | 68° |
| 2026-05-05 11:25 | 52.33054 | 13.40599 | 1006 ft | 137 kts | 68° |
| 2026-05-05 11:25 | 52.33399 | 13.42052 | 818 ft | 137 kts | 69° |
| 2026-05-05 11:25 | 52.33741 | 13.43492 | 640 ft | 136 kts | 69° |
| 2026-05-05 11:26 | 52.34091 | 13.44926 | 455 ft | 135 kts | 67° |
| 2026-05-05 11:26 | 52.34431 | 13.46365 | 296 ft | 135 kts | 68° |
| 2026-05-05 11:26 | 52.34757 | 13.47782 | 174 ft | 127 kts | 68° |
| 2026-05-05 11:26 | 52.35044 | 13.48965 | 160 ft | 91 kts | 69° |
| 2026-05-05 11:27 | 52.35230 | 13.49748 | 160 ft | 60 kts | 70° |
| 2026-05-05 11:27 | 52.35345 | 13.50202 | 160 ft | 24 kts | 71° |
| 2026-05-05 11:27 | 52.35407 | 13.50417 | 160 ft | 10 kts | 49° |
| 2026-05-05 11:27 | 52.35459 | 13.50519 | 160 ft | 13 kts | 48° |
| 2026-05-05 11:28 | 52.35526 | 13.50629 | 160 ft | 12 kts | 34° |
| 2026-05-05 11:28 | 52.35585 | 13.50688 | 160 ft | 8 kts | 31° |
| 2026-05-05 11:28 | 52.35644 | 13.50737 | 160 ft | 11 kts | 6° |
| 2026-05-05 11:28 | 52.35722 | 13.50699 | 160 ft | 13 kts | 340° |
| 2026-05-05 11:29 | 52.35797 | 13.50719 | 160 ft | 7 kts | 55° |
| 2026-05-05 11:29 | 52.35842 | 13.50760 | 160 ft | 9 kts | 360° |
| 2026-05-05 11:29 | 52.35912 | 13.50736 | 160 ft | 12 kts | 338° |
| 2026-05-05 11:29 | 52.35995 | 13.50687 | 160 ft | 14 kts | 340° |
| 2026-05-05 11:30 | 52.36092 | 13.50626 | 160 ft | 16 kts | 326° |
| 2026-05-05 11:30 | 52.36150 | 13.50588 | 160 ft | 9 kts | 339° |
| 2026-05-05 11:30 | 52.36217 | 13.50544 | 160 ft | 12 kts | 339° |
| 2026-05-05 11:30 | 52.36300 | 13.50492 | 160 ft | 14 kts | 339° |
| 2026-05-05 11:31 | 52.36360 | 13.50454 | 160 ft | 0 kts | 339° |
| 2026-05-05 11:31 | 52.36365 | 13.50450 | 160 ft | 3 kts | 339° |
| 2026-05-05 11:31 | 52.36371 | 13.50447 | 160 ft | 0 kts | 340° |
| 2026-05-05 11:31 | 52.36391 | 13.50434 | 160 ft | 6 kts | 339° |
| 2026-05-05 11:32 | 52.36431 | 13.50410 | 160 ft | 1 kts | 353° |
| 2026-05-05 11:32 | 52.36440 | 13.50427 | 160 ft | 4 kts | 66° |
| 2026-05-05 11:32 | 52.36453 | 13.50479 | 160 ft | 5 kts | 70° |
| 2026-05-05 11:32 | 52.36466 | 13.50532 | 160 ft | 1 kts | 68° |
| 2026-05-05 11:33 | 52.36466 | 13.50535 | 160 ft | 0 kts | 68° |